• Join FlightAware (Why Join?)
  • Login
  • US Flag 
02:16AM EDT


 

Airport Tracker/Info


-or-


 

Live Flight TrackerFlight Track Log ✈ N472ER ✈ 29-Sep-2013 ✈ KDAB - KSGJ

Flight Track Log - Related Links

Times and Time Zones

All times are in EDT time to prevent confusion due to time zone crossing. See the N472ER flight status page for this flight to view local times or setup timezone preferences in your user account.

Time Position Orientation Groundspeed Altitude Reporting Facility
EDT Latitude Longitude Course Direction KTS MPH feet Rate Location/Type
11:14AM 29.1822 -81.0517 37° Northeast 76 87 400  Level Jacksonville Center
11:15AM 29.1906 -81.0444 37° Northeast 76 87 900 780 Climbing Jacksonville Center
11:16AM 29.2094 -81.0464 355° North 67 77 1,600 660 Climbing Jacksonville Center
11:17AM 29.2281 -81.0483 355° North 67 77 2,300 600 Climbing Jacksonville Center
11:18AM 29.2450 -81.0600 329° Northwest 74 85 2,900 300 Climbing Jacksonville Center
11:19AM 29.2642 -81.0786 320° Northwest 107 123 3,000  Climbing Jacksonville Center
11:20AM 29.2875 -81.1044 316° Northwest 113 130 3,000  Level Jacksonville Center
11:21AM 29.3147 -81.1206 333° Northwest 112 129 3,000  Level Jacksonville Center
11:22AM 29.3442 -81.1319 341° North 107 123 3,000  Level Jacksonville Center
11:23AM 29.3694 -81.1436 338° Northwest 105 121 3,000  Level Jacksonville Center
11:24AM 29.4028 -81.1525 347° North 104 120 3,100  Climbing Jacksonville Center
11:25AM 29.4303 -81.1614 344° North 105 121 3,100 -60 Level Jacksonville Center
11:26AM 29.4553 -81.1753 334° Northwest 108 124 3,000 -60 Descending Jacksonville Center
11:27AM 29.4931 -81.1892 342° North 106 122 3,000  Level Jacksonville Center
11:28AM 29.5203 -81.1981 344° North 108 124 3,100  Climbing Jacksonville Center
11:29AM 29.5497 -81.2094 341° North 108 124 3,100  Level Jacksonville Center
11:30AM 29.5667 -81.2189 334° Northwest 108 124 3,100 -120 Level Jacksonville Center
11:31AM 29.5939 -81.2303 340° North 106 122 3,000 -60 Descending Jacksonville Center
11:32AM 29.6189 -81.2369 347° North 95 109 3,000  Level Jacksonville Center
11:33AM 29.6611 -81.2697 326° Northwest 113 130 3,000  Level Jacksonville Center
11:34AM 29.6844 -81.2861 329° Northwest 110 127 3,000  Level Jacksonville Center
11:35AM 29.7097 -81.3047 327° Northwest 109 125 3,000  Level Jacksonville Center
11:36AM 29.7411 -81.3114 350° North 103 119 3,000  Level Jacksonville Center
11:37AM 29.7725 -81.3181 350° North 104 120 3,000  Level Jacksonville Center
11:38AM 29.7975 -81.3225 351° North 106 122 3,000 -360 Level Jacksonville Center
11:39AM 29.8286 -81.3125 16° North 115 132 2,400 -480 Descending Jacksonville Center
11:40AM 29.8558 -81.3025 18° North 103 119 2,000 -300 Descending Jacksonville Center
11:41AM 29.8828 -81.2875 26° Northeast 106 122 1,900 -300 Descending Jacksonville Center
11:42AM 29.9033 -81.2681 39° Northeast 105 121 1,500 -420 Descending Jacksonville Center
11:43AM 29.9267 -81.2892 322° Northwest 109 125 1,100 -420 Descending Jacksonville Center